sensor_id;sensor_type;location;lat;lon;timestamp;pressure;altitude;pressure_sealevel;temperature;humidity
20622;BME280;10470;42.670;23.354;2023-07-02T00:00:49;94209.41;;;20.59;100.00
20622;BME280;10470;42.670;23.354;2023-07-02T00:03:18;94203.44;;;20.55;100.00
20622;BME280;10470;42.670;23.354;2023-07-02T00:05:53;94222.19;;;20.62;100.00
20622;BME280;10470;42.670;23.354;2023-07-02T00:08:22;94208.34;;;20.62;100.00
20622;BME280;10470;42.670;23.354;2023-07-02T00:10:50;94203.25;;;20.66;100.00
20622;BME280;10470;42.670;23.354;2023-07-02T00:13:18;94199.66;;;20.39;100.00
20622;BME280;10470;42.670;23.354;2023-07-02T00:15:47;94196.66;;;20.37;100.00
20622;BME280;10470;42.670;23.354;2023-07-02T00:18:17;94194.50;;;20.62;100.00
20622;BME280;10470;42.670;23.354;2023-07-02T00:20:46;94188.78;;;20.41;100.00
20622;BME280;10470;42.670;23.354;2023-07-02T00:23:16;94186.78;;;20.23;100.00
20622;BME280;10470;42.670;23.354;2023-07-02T00:25:43;94179.78;;;20.22;100.00
20622;BME280;10470;42.670;23.354;2023-07-02T00:28:12;94179.03;;;20.02;100.00
20622;BME280;10470;42.670;23.354;2023-07-02T00:30:41;94184.13;;;20.17;100.00
20622;BME280;10470;42.670;23.354;2023-07-02T00:33:11;94184.94;;;20.12;100.00
20622;BME280;10470;42.670;23.354;2023-07-02T00:35:40;94187.06;;;20.06;100.00
20622;BME280;10470;42.670;23.354;2023-07-02T00:38:07;94192.38;;;20.04;100.00
20622;BME280;10470;42.670;23.354;2023-07-02T00:40:36;94200.69;;;20.36;100.00
20622;BME280;10470;42.670;23.354;2023-07-02T00:43:06;94200.69;;;19.85;100.00
20622;BME280;10470;42.670;23.354;2023-07-02T00:45:38;94214.25;;;20.02;100.00
20622;BME280;10470;42.670;23.354;2023-07-02T00:48:07;94215.00;;;20.21;100.00
20622;BME280;10470;42.670;23.354;2023-07-02T00:50:35;94210.13;;;20.27;100.00
20622;BME280;10470;42.670;23.354;2023-07-02T00:53:04;94202.28;;;20.13;100.00
20622;BME280;10470;42.670;23.354;2023-07-02T00:55:33;94208.66;;;19.89;100.00
20622;BME280;10470;42.670;23.354;2023-07-02T00:58:03;94205.50;;;19.79;100.00
20622;BME280;10470;42.670;23.354;2023-07-02T01:00:32;94197.28;;;19.73;100.00
20622;BME280;10470;42.670;23.354;2023-07-02T01:03:02;94192.88;;;20.02;100.00
20622;BME280;10470;42.670;23.354;2023-07-02T01:05:31;94199.00;;;19.76;100.00
20622;BME280;10470;42.670;23.354;2023-07-02T01:08:07;94192.13;;;20.02;100.00
20622;BME280;10470;42.670;23.354;2023-07-02T01:10:35;94195.03;;;20.10;100.00
20622;BME280;10470;42.670;23.354;2023-07-02T01:13:10;94197.91;;;19.85;100.00
20622;BME280;10470;42.670;23.354;2023-07-02T01:15:39;94202.00;;;19.78;100.00
20622;BME280;10470;42.670;23.354;2023-07-02T01:18:09;94208.00;;;19.82;100.00
20622;BME280;10470;42.670;23.354;2023-07-02T01:20:38;94200.94;;;19.62;100.00
20622;BME280;10470;42.670;23.354;2023-07-02T01:23:08;94203.34;;;19.91;100.00
20622;BME280;10470;42.670;23.354;2023-07-02T01:25:37;94193.72;;;19.78;100.00
20622;BME280;10470;42.670;23.354;2023-07-02T01:28:07;94197.97;;;19.98;100.00
20622;BME280;10470;42.670;23.354;2023-07-02T01:30:34;94201.84;;;20.08;100.00
20622;BME280;10470;42.670;23.354;2023-07-02T01:33:04;94210.38;;;19.92;100.00
20622;BME280;10470;42.670;23.354;2023-07-02T01:35:34;94198.56;;;19.91;100.00
20622;BME280;10470;42.670;23.354;2023-07-02T01:38:01;94176.84;;;19.82;100.00
20622;BME280;10470;42.670;23.354;2023-07-02T01:40:29;94174.63;;;19.56;100.00
20622;BME280;10470;42.670;23.354;2023-07-02T01:42:57;94179.22;;;19.72;100.00
20622;BME280;10470;42.670;23.354;2023-07-02T01:45:24;94175.63;;;19.96;100.00
20622;BME280;10470;42.670;23.354;2023-07-02T01:47:53;94167.25;;;19.83;100.00
20622;BME280;10470;42.670;23.354;2023-07-02T01:50:22;94175.03;;;20.03;100.00
20622;BME280;10470;42.670;23.354;2023-07-02T01:52:51;94177.38;;;20.13;100.00
20622;BME280;10470;42.670;23.354;2023-07-02T01:55:21;94166.50;;;20.01;100.00
20622;BME280;10470;42.670;23.354;2023-07-02T01:57:48;94162.31;;;19.95;100.00
20622;BME280;10470;42.670;23.354;2023-07-02T02:00:16;94166.97;;;19.68;100.00
20622;BME280;10470;42.670;23.354;2023-07-02T02:02:46;94155.34;;;19.50;100.00
20622;BME280;10470;42.670;23.354;2023-07-02T02:05:15;94150.22;;;19.79;100.00
20622;BME280;10470;42.670;23.354;2023-07-02T02:07:44;94142.88;;;19.43;100.00
20622;BME280;10470;42.670;23.354;2023-07-02T02:10:12;94130.84;;;19.41;100.00
20622;BME280;10470;42.670;23.354;2023-07-02T02:12:41;94134.06;;;19.45;100.00
20622;BME280;10470;42.670;23.354;2023-07-02T02:15:09;94147.59;;;19.49;100.00
20622;BME280;10470;42.670;23.354;2023-07-02T02:17:39;94149.41;;;19.21;100.00
20622;BME280;10470;42.670;23.354;2023-07-02T02:20:09;94148.97;;;18.93;100.00
20622;BME280;10470;42.670;23.354;2023-07-02T02:22:37;94138.13;;;19.19;100.00
20622;BME280;10470;42.670;23.354;2023-07-02T02:25:07;94149.72;;;19.18;100.00
20622;BME280;10470;42.670;23.354;2023-07-02T02:27:36;94117.13;;;18.92;100.00
20622;BME280;10470;42.670;23.354;2023-07-02T02:30:04;94128.06;;;19.22;100.00
20622;BME280;10470;42.670;23.354;2023-07-02T02:32:34;94129.06;;;19.00;100.00
20622;BME280;10470;42.670;23.354;2023-07-02T02:35:02;94137.22;;;19.11;100.00
20622;BME280;10470;42.670;23.354;2023-07-02T02:37:33;94117.78;;;19.23;100.00
20622;BME280;10470;42.670;23.354;2023-07-02T02:40:02;94131.78;;;18.81;100.00
20622;BME280;10470;42.670;23.354;2023-07-02T02:42:29;94119.75;;;19.03;100.00
20622;BME280;10470;42.670;23.354;2023-07-02T02:44:57;94119.97;;;19.05;100.00
20622;BME280;10470;42.670;23.354;2023-07-02T02:47:24;94113.94;;;19.07;100.00
20622;BME280;10470;42.670;23.354;2023-07-02T02:49:52;94098.06;;;18.88;100.00
20622;BME280;10470;42.670;23.354;2023-07-02T02:52:19;94100.59;;;19.11;100.00
20622;BME280;10470;42.670;23.354;2023-07-02T02:54:47;94125.28;;;19.03;100.00
20622;BME280;10470;42.670;23.354;2023-07-02T02:57:15;94116.16;;;18.89;100.00
20622;BME280;10470;42.670;23.354;2023-07-02T02:59:42;94125.28;;;19.22;100.00
20622;BME280;10470;42.670;23.354;2023-07-02T03:02:10;94131.13;;;19.37;100.00
20622;BME280;10470;42.670;23.354;2023-07-02T03:04:38;94127.47;;;19.29;100.00
20622;BME280;10470;42.670;23.354;2023-07-02T03:07:13;94141.22;;;19.35;100.00
20622;BME280;10470;42.670;23.354;2023-07-02T03:09:41;94120.00;;;19.24;100.00
20622;BME280;10470;42.670;23.354;2023-07-02T03:12:09;94127.47;;;19.48;100.00
20622;BME280;10470;42.670;23.354;2023-07-02T03:14:37;94137.78;;;19.48;100.00
20622;BME280;10470;42.670;23.354;2023-07-02T03:17:05;94134.28;;;19.28;100.00
20622;BME280;10470;42.670;23.354;2023-07-02T03:19:33;94123.38;;;19.36;100.00
20622;BME280;10470;42.670;23.354;2023-07-02T03:22:00;94116.88;;;19.52;100.00
20622;BME280;10470;42.670;23.354;2023-07-02T03:24:29;94119.28;;;19.61;100.00
20622;BME280;10470;42.670;23.354;2023-07-02T03:26:56;94135.66;;;19.40;100.00
20622;BME280;10470;42.670;23.354;2023-07-02T03:29:24;94141.69;;;19.39;100.00
20622;BME280;10470;42.670;23.354;2023-07-02T03:31:52;94151.44;;;19.40;100.00
20622;BME280;10470;42.670;23.354;2023-07-02T03:34:20;94155.34;;;19.50;100.00
20622;BME280;10470;42.670;23.354;2023-07-02T03:36:50;94161.03;;;19.39;100.00
20622;BME280;10470;42.670;23.354;2023-07-02T03:39:18;94157.66;;;19.46;100.00
20622;BME280;10470;42.670;23.354;2023-07-02T03:41:46;94158.84;;;19.51;100.00
20622;BME280;10470;42.670;23.354;2023-07-02T03:44:13;94159.75;;;19.40;100.00
20622;BME280;10470;42.670;23.354;2023-07-02T03:46:41;94153.88;;;19.06;100.00
20622;BME280;10470;42.670;23.354;2023-07-02T03:49:11;94153.63;;;19.28;100.00
20622;BME280;10470;42.670;23.354;2023-07-02T03:51:41;94147.66;;;19.62;100.00
20622;BME280;10470;42.670;23.354;2023-07-02T03:54:11;94143.25;;;19.53;100.00
20622;BME280;10470;42.670;23.354;2023-07-02T03:56:40;94149.00;;;19.55;100.00
20622;BME280;10470;42.670;23.354;2023-07-02T03:59:09;94156.53;;;19.55;100.00
20622;BME280;10470;42.670;23.354;2023-07-02T04:01:38;94162.00;;;19.60;100.00
20622;BME280;10470;42.670;23.354;2023-07-02T04:04:07;94156.69;;;19.62;100.00
20622;BME280;10470;42.670;23.354;2023-07-02T04:06:37;94149.09;;;19.69;100.00
20622;BME280;10470;42.670;23.354;2023-07-02T04:09:05;94162.19;;;19.68;100.00
20622;BME280;10470;42.670;23.354;2023-07-02T04:11:34;94172.22;;;19.47;100.00
20622;BME280;10470;42.670;23.354;2023-07-02T04:14:02;94157.13;;;19.29;100.00
20622;BME280;10470;42.670;23.354;2023-07-02T04:16:31;94154.00;;;19.57;100.00
20622;BME280;10470;42.670;23.354;2023-07-02T04:19:00;94155.41;;;19.69;100.00
20622;BME280;10470;42.670;23.354;2023-07-02T04:21:29;94172.66;;;19.75;100.00
20622;BME280;10470;42.670;23.354;2023-07-02T04:23:58;94184.00;;;19.72;100.00
20622;BME280;10470;42.670;23.354;2023-07-02T04:26:25;94192.00;;;19.75;100.00
20622;BME280;10470;42.670;23.354;2023-07-02T04:28:54;94192.00;;;19.75;100.00
20622;BME280;10470;42.670;23.354;2023-07-02T04:31:23;94187.53;;;19.72;100.00
20622;BME280;10470;42.670;23.354;2023-07-02T04:33:52;94192.47;;;19.79;100.00
20622;BME280;10470;42.670;23.354;2023-07-02T04:36:21;94194.75;;;19.94;100.00
20622;BME280;10470;42.670;23.354;2023-07-02T04:38:48;94202.22;;;19.80;100.00
20622;BME280;10470;42.670;23.354;2023-07-02T04:41:18;94202.00;;;19.78;100.00
20622;BME280;10470;42.670;23.354;2023-07-02T04:43:46;94202.09;;;19.73;100.00
20622;BME280;10470;42.670;23.354;2023-07-02T04:46:15;94222.72;;;19.66;100.00
20622;BME280;10470;42.670;23.354;2023-07-02T04:48:45;94219.66;;;19.75;100.00
20622;BME280;10470;42.670;23.354;2023-07-02T04:51:14;94221.75;;;19.88;100.00
20622;BME280;10470;42.670;23.354;2023-07-02T04:53:43;94224.34;;;19.80;100.00
20622;BME280;10470;42.670;23.354;2023-07-02T04:56:13;94220.34;;;19.57;100.00
20622;BME280;10470;42.670;23.354;2023-07-02T04:58:42;94225.25;;;19.70;100.00
20622;BME280;10470;42.670;23.354;2023-07-02T05:01:11;94224.53;;;19.63;100.00
20622;BME280;10470;42.670;23.354;2023-07-02T05:03:38;94226.31;;;19.61;100.00
20622;BME280;10470;42.670;23.354;2023-07-02T05:06:06;94218.41;;;19.52;100.00
20622;BME280;10470;42.670;23.354;2023-07-02T05:08:35;94223.03;;;19.62;100.00
20622;BME280;10470;42.670;23.354;2023-07-02T05:11:05;94225.72;;;19.49;100.00
20622;BME280;10470;42.670;23.354;2023-07-02T05:13:34;94235.94;;;19.54;100.00
20622;BME280;10470;42.670;23.354;2023-07-02T05:16:04;94228.69;;;19.76;100.00
20622;BME280;10470;42.670;23.354;2023-07-02T05:18:33;94233.78;;;19.66;100.00
20622;BME280;10470;42.670;23.354;2023-07-02T05:21:02;94238.41;;;19.82;100.00
20622;BME280;10470;42.670;23.354;2023-07-02T05:23:31;94239.50;;;19.74;100.00
20622;BME280;10470;42.670;23.354;2023-07-02T05:26:00;94248.50;;;19.80;100.00
20622;BME280;10470;42.670;23.354;2023-07-02T05:28:29;94239.16;;;20.02;100.00
20622;BME280;10470;42.670;23.354;2023-07-02T05:30:58;94241.59;;;19.68;100.00
20622;BME280;10470;42.670;23.354;2023-07-02T05:33:28;94227.28;;;19.88;100.00
20622;BME280;10470;42.670;23.354;2023-07-02T05:35:57;94235.66;;;20.01;100.00
20622;BME280;10470;42.670;23.354;2023-07-02T05:38:26;94236.53;;;19.91;100.00
20622;BME280;10470;42.670;23.354;2023-07-02T05:40:56;94236.31;;;20.07;100.00
20622;BME280;10470;42.670;23.354;2023-07-02T05:43:25;94245.06;;;20.12;100.00
20622;BME280;10470;42.670;23.354;2023-07-02T05:45:58;94250.28;;;20.15;100.00
20622;BME280;10470;42.670;23.354;2023-07-02T05:48:29;94253.00;;;20.21;100.00
20622;BME280;10470;42.670;23.354;2023-07-02T05:50:58;94266.13;;;20.15;100.00
20622;BME280;10470;42.670;23.354;2023-07-02T05:53:26;94258.50;;;20.40;100.00
20622;BME280;10470;42.670;23.354;2023-07-02T05:55:55;94265.53;;;20.41;100.00
20622;BME280;10470;42.670;23.354;2023-07-02T05:58:25;94275.78;;;20.27;100.00
20622;BME280;10470;42.670;23.354;2023-07-02T06:00:54;94253.19;;;20.42;100.00
20622;BME280;10470;42.670;23.354;2023-07-02T06:03:23;94267.56;;;20.21;100.00
20622;BME280;10470;42.670;23.354;2023-07-02T06:05:50;94270.31;;;20.59;100.00
20622;BME280;10470;42.670;23.354;2023-07-02T06:08:19;94257.53;;;20.37;100.00
20622;BME280;10470;42.670;23.354;2023-07-02T06:10:50;94261.31;;;20.72;100.00
20622;BME280;10470;42.670;23.354;2023-07-02T06:13:19;94262.59;;;21.16;100.00
20622;BME280;10470;42.670;23.354;2023-07-02T06:15:48;94262.97;;;20.81;100.00
20622;BME280;10470;42.670;23.354;2023-07-02T06:18:16;94262.69;;;21.11;100.00
20622;BME280;10470;42.670;23.354;2023-07-02T06:20:46;94260.59;;;20.85;100.00
20622;BME280;10470;42.670;23.354;2023-07-02T06:23:15;94250.72;;;20.89;100.00
20622;BME280;10470;42.670;23.354;2023-07-02T06:25:43;94255.78;;;21.17;100.00
20622;BME280;10470;42.670;23.354;2023-07-02T06:28:12;94255.78;;;21.17;100.00
20622;BME280;10470;42.670;23.354;2023-07-02T06:30:42;94254.41;;;21.24;100.00
20622;BME280;10470;42.670;23.354;2023-07-02T06:33:12;94253.06;;;21.44;100.00
20622;BME280;10470;42.670;23.354;2023-07-02T06:35:41;94251.88;;;21.40;100.00
20622;BME280;10470;42.670;23.354;2023-07-02T06:38:08;94259.75;;;21.35;100.00
20622;BME280;10470;42.670;23.354;2023-07-02T06:40:37;94253.47;;;21.75;100.00
20622;BME280;10470;42.670;23.354;2023-07-02T06:43:07;94256.69;;;21.52;100.00
20622;BME280;10470;42.670;23.354;2023-07-02T06:45:37;94256.91;;;21.68;100.00
20622;BME280;10470;42.670;23.354;2023-07-02T06:48:06;94262.66;;;21.83;100.00
20622;BME280;10470;42.670;23.354;2023-07-02T06:50:35;94257.00;;;21.75;100.00
20622;BME280;10470;42.670;23.354;2023-07-02T06:53:04;94253.06;;;21.71;100.00
20622;BME280;10470;42.670;23.354;2023-07-02T06:55:31;94254.97;;;21.76;100.00
20622;BME280;10470;42.670;23.354;2023-07-02T06:58:01;94257.53;;;21.47;100.00
20622;BME280;10470;42.670;23.354;2023-07-02T07:00:32;94256.56;;;21.71;100.00
20622;BME280;10470;42.670;23.354;2023-07-02T07:03:03;94261.16;;;21.82;100.00
20622;BME280;10470;42.670;23.354;2023-07-02T07:05:32;94261.91;;;21.83;100.00
20622;BME280;10470;42.670;23.354;2023-07-02T07:08:02;94263.97;;;21.69;100.00
20622;BME280;10470;42.670;23.354;2023-07-02T07:10:31;94269.09;;;22.25;100.00
20622;BME280;10470;42.670;23.354;2023-07-02T07:13:02;94267.00;;;22.05;100.00
20622;BME280;10470;42.670;23.354;2023-07-02T07:15:33;94268.50;;;22.06;100.00
20622;BME280;10470;42.670;23.354;2023-07-02T07:18:08;94270.31;;;21.90;100.00
20622;BME280;10470;42.670;23.354;2023-07-02T07:20:39;94271.50;;;21.95;100.00
20622;BME280;10470;42.670;23.354;2023-07-02T07:23:07;94260.72;;;21.78;100.00
20622;BME280;10470;42.670;23.354;2023-07-02T07:25:35;94268.63;;;22.00;100.00
20622;BME280;10470;42.670;23.354;2023-07-02T07:28:04;94256.75;;;21.87;100.00
20622;BME280;10470;42.670;23.354;2023-07-02T07:30:34;94265.72;;;22.06;100.00
20622;BME280;10470;42.670;23.354;2023-07-02T07:33:01;94261.88;;;22.09;100.00
20622;BME280;10470;42.670;23.354;2023-07-02T07:35:31;94258.22;;;22.14;100.00
20622;BME280;10470;42.670;23.354;2023-07-02T07:37:59;94270.19;;;22.22;100.00
20622;BME280;10470;42.670;23.354;2023-07-02T07:40:28;94258.66;;;22.18;100.00
20622;BME280;10470;42.670;23.354;2023-07-02T07:42:58;94254.84;;;22.08;100.00
20622;BME280;10470;42.670;23.354;2023-07-02T07:45:25;94255.69;;;22.03;100.00
20622;BME280;10470;42.670;23.354;2023-07-02T07:47:53;94256.97;;;21.89;100.00
20622;BME280;10470;42.670;23.354;2023-07-02T07:50:21;94261.25;;;21.90;100.00
20622;BME280;10470;42.670;23.354;2023-07-02T07:52:48;94271.06;;;22.04;100.00
20622;BME280;10470;42.670;23.354;2023-07-02T07:55:17;94262.31;;;22.00;100.00
20622;BME280;10470;42.670;23.354;2023-07-02T07:57:47;94257.94;;;21.91;100.00
20622;BME280;10470;42.670;23.354;2023-07-02T08:00:16;94264.19;;;22.32;100.00
20622;BME280;10470;42.670;23.354;2023-07-02T08:02:46;94270.28;;;22.30;100.00
20622;BME280;10470;42.670;23.354;2023-07-02T08:05:15;94275.50;;;22.34;100.00
20622;BME280;10470;42.670;23.354;2023-07-02T08:07:43;94270.81;;;22.63;100.00
20622;BME280;10470;42.670;23.354;2023-07-02T08:10:12;94271.88;;;22.39;100.00
20622;BME280;10470;42.670;23.354;2023-07-02T08:12:41;94262.28;;;22.27;100.00
20622;BME280;10470;42.670;23.354;2023-07-02T08:15:09;94276.78;;;22.33;100.00
20622;BME280;10470;42.670;23.354;2023-07-02T08:17:38;94273.31;;;22.53;100.00
20622;BME280;10470;42.670;23.354;2023-07-02T08:20:06;94274.69;;;22.46;100.00
20622;BME280;10470;42.670;23.354;2023-07-02T08:22:39;94273.34;;;22.40;100.00
20622;BME280;10470;42.670;23.354;2023-07-02T08:25:08;94275.22;;;22.79;100.00
20622;BME280;10470;42.670;23.354;2023-07-02T08:27:38;94270.91;;;22.71;100.00
20622;BME280;10470;42.670;23.354;2023-07-02T08:30:05;94278.38;;;22.97;100.00
20622;BME280;10470;42.670;23.354;2023-07-02T08:32:35;94271.34;;;23.17;100.00
20622;BME280;10470;42.670;23.354;2023-07-02T08:35:05;94275.16;;;23.34;100.00
20622;BME280;10470;42.670;23.354;2023-07-02T08:37:35;94264.59;;;23.62;100.00
20622;BME280;10470;42.670;23.354;2023-07-02T08:40:05;94266.03;;;23.55;100.00
20622;BME280;10470;42.670;23.354;2023-07-02T08:42:34;94266.56;;;23.74;100.00
20622;BME280;10470;42.670;23.354;2023-07-02T08:45:02;94273.72;;;23.70;100.00
20622;BME280;10470;42.670;23.354;2023-07-02T08:47:31;94276.09;;;23.58;100.00
20622;BME280;10470;42.670;23.354;2023-07-02T08:50:02;94274.25;;;23.89;100.00
20622;BME280;10470;42.670;23.354;2023-07-02T08:52:31;94268.91;;;23.99;100.00
20622;BME280;10470;42.670;23.354;2023-07-02T08:55:00;94274.22;;;24.26;100.00
20622;BME280;10470;42.670;23.354;2023-07-02T08:57:28;94274.19;;;24.18;100.00
20622;BME280;10470;42.670;23.354;2023-07-02T08:59:56;94271.56;;;23.76;100.00
20622;BME280;10470;42.670;23.354;2023-07-02T09:02:35;94278.19;;;24.02;100.00
20622;BME280;10470;42.670;23.354;2023-07-02T09:05:03;94270.63;;;24.10;100.00
20622;BME280;10470;42.670;23.354;2023-07-02T09:07:46;94273.44;;;24.17;100.00
20622;BME280;10470;42.670;23.354;2023-07-02T09:10:28;94270.09;;;23.75;100.00
20622;BME280;10470;42.670;23.354;2023-07-02T09:13:06;94266.34;;;24.09;100.00
20622;BME280;10470;42.670;23.354;2023-07-02T09:15:38;94268.09;;;24.27;100.00
20622;BME280;10470;42.670;23.354;2023-07-02T09:18:19;94270.06;;;24.11;100.00
20622;BME280;10470;42.670;23.354;2023-07-02T09:20:49;94271.44;;;24.33;100.00
20622;BME280;10470;42.670;23.354;2023-07-02T09:23:19;94269.47;;;24.41;100.00
20622;BME280;10470;42.670;23.354;2023-07-02T09:25:47;94275.13;;;24.65;100.00
20622;BME280;10470;42.670;23.354;2023-07-02T09:28:22;94275.88;;;24.73;100.00
20622;BME280;10470;42.670;23.354;2023-07-02T09:33:28;94269.41;;;25.08;100.00
20622;BME280;10470;42.670;23.354;2023-07-02T09:35:57;94267.16;;;24.84;100.00
20622;BME280;10470;42.670;23.354;2023-07-02T09:38:25;94264.91;;;24.82;100.00
20622;BME280;10470;42.670;23.354;2023-07-02T09:40:56;94263.31;;;25.18;100.00
20622;BME280;10470;42.670;23.354;2023-07-02T09:43:24;94264.03;;;25.49;100.00
20622;BME280;10470;42.670;23.354;2023-07-02T09:45:54;94257.50;;;25.54;100.00
20622;BME280;10470;42.670;23.354;2023-07-02T09:48:27;94261.44;;;25.36;100.00
20622;BME280;10470;42.670;23.354;2023-07-02T09:51:00;94266.06;;;25.71;100.00
20622;BME280;10470;42.670;23.354;2023-07-02T09:53:28;94258.81;;;24.92;100.00
20622;BME280;10470;42.670;23.354;2023-07-02T09:55:59;94264.63;;;25.32;100.00
20622;BME280;10470;42.670;23.354;2023-07-02T09:58:28;94261.53;;;25.84;100.00
20622;BME280;10470;42.670;23.354;2023-07-02T10:00:59;94256.31;;;26.03;100.00
20622;BME280;10470;42.670;23.354;2023-07-02T10:03:31;94264.47;;;26.09;100.00
20622;BME280;10470;42.670;23.354;2023-07-02T10:06:05;94258.75;;;25.84;100.00
20622;BME280;10470;42.670;23.354;2023-07-02T10:08:34;94257.91;;;26.22;100.00
20622;BME280;10470;42.670;23.354;2023-07-02T10:11:12;94250.63;;;25.55;100.00
20622;BME280;10470;42.670;23.354;2023-07-02T10:13:43;94249.56;;;26.14;100.00
20622;BME280;10470;42.670;23.354;2023-07-02T10:16:11;94244.84;;;25.76;100.00
20622;BME280;10470;42.670;23.354;2023-07-02T10:18:38;94240.28;;;26.04;100.00
20622;BME280;10470;42.670;23.354;2023-07-02T10:21:16;94241.44;;;26.41;100.00
20622;BME280;10470;42.670;23.354;2023-07-02T10:23:44;94234.34;;;26.40;100.00
20622;BME280;10470;42.670;23.354;2023-07-02T10:26:19;94226.56;;;26.39;100.00
20622;BME280;10470;42.670;23.354;2023-07-02T10:29:00;94221.50;;;26.45;100.00
20622;BME280;10470;42.670;23.354;2023-07-02T10:31:29;94226.41;;;26.94;100.00
20622;BME280;10470;42.670;23.354;2023-07-02T10:33:58;94211.63;;;27.01;100.00
20622;BME280;10470;42.670;23.354;2023-07-02T10:36:26;94224.97;;;27.11;100.00
20622;BME280;10470;42.670;23.354;2023-07-02T10:39:01;94226.00;;;26.73;100.00
20622;BME280;10470;42.670;23.354;2023-07-02T10:41:32;94223.84;;;27.14;100.00
20622;BME280;10470;42.670;23.354;2023-07-02T10:44:09;94223.19;;;26.98;100.00
20622;BME280;10470;42.670;23.354;2023-07-02T10:46:48;94226.53;;;27.29;100.00
20622;BME280;10470;42.670;23.354;2023-07-02T10:49:17;94228.88;;;27.58;100.00
20622;BME280;10470;42.670;23.354;2023-07-02T10:51:57;94227.97;;;27.55;100.00
20622;BME280;10470;42.670;23.354;2023-07-02T10:54:25;94213.91;;;27.20;100.00
20622;BME280;10470;42.670;23.354;2023-07-02T10:56:57;94222.50;;;27.82;100.00
20622;BME280;10470;42.670;23.354;2023-07-02T10:59:26;94212.25;;;27.60;100.00
20622;BME280;10470;42.670;23.354;2023-07-02T11:01:54;94215.00;;;28.47;100.00
20622;BME280;10470;42.670;23.354;2023-07-02T11:04:24;94220.41;;;28.99;100.00
20622;BME280;10470;42.670;23.354;2023-07-02T11:06:52;94220.69;;;29.30;100.00
20622;BME280;10470;42.670;23.354;2023-07-02T11:09:20;94215.84;;;29.40;100.00
20622;BME280;10470;42.670;23.354;2023-07-02T11:11:53;94217.44;;;29.34;100.00
20622;BME280;10470;42.670;23.354;2023-07-02T11:14:34;94215.50;;;29.73;100.00
20622;BME280;10470;42.670;23.354;2023-07-02T11:17:06;94217.97;;;28.49;100.00
20622;BME280;10470;42.670;23.354;2023-07-02T11:19:35;94207.34;;;28.30;100.00
20622;BME280;10470;42.670;23.354;2023-07-02T11:22:03;94215.94;;;29.79;100.00
20622;BME280;10470;42.670;23.354;2023-07-02T11:24:33;94211.63;;;30.17;100.00
20622;BME280;10470;42.670;23.354;2023-07-02T11:27:04;94206.91;;;30.20;100.00
20622;BME280;10470;42.670;23.354;2023-07-02T11:29:35;94211.78;;;30.10;100.00
20622;BME280;10470;42.670;23.354;2023-07-02T11:32:10;94214.66;;;30.70;100.00
20622;BME280;10470;42.670;23.354;2023-07-02T11:34:39;94211.78;;;30.10;100.00
20622;BME280;10470;42.670;23.354;2023-07-02T11:37:07;94211.72;;;28.68;100.00
20622;BME280;10470;42.670;23.354;2023-07-02T11:39:35;94226.47;;;27.12;100.00
20622;BME280;10470;42.670;23.354;2023-07-02T11:42:03;94228.44;;;26.69;100.00
20622;BME280;10470;42.670;23.354;2023-07-02T11:44:30;94217.41;;;26.05;100.00
20622;BME280;10470;42.670;23.354;2023-07-02T11:46:59;94215.78;;;26.68;100.00
20622;BME280;10470;42.670;23.354;2023-07-02T11:49:27;94215.19;;;26.69;100.00
20622;BME280;10470;42.670;23.354;2023-07-02T11:51:55;94207.38;;;26.35;100.00
20622;BME280;10470;42.670;23.354;2023-07-02T11:54:24;94213.66;;;26.10;100.00
20622;BME280;10470;42.670;23.354;2023-07-02T11:56:52;94205.53;;;25.97;100.00
20622;BME280;10470;42.670;23.354;2023-07-02T11:59:20;94218.91;;;25.99;100.00
20622;BME280;10470;42.670;23.354;2023-07-02T12:01:48;94217.16;;;27.34;100.00
20622;BME280;10470;42.670;23.354;2023-07-02T12:04:16;94230.59;;;28.94;100.00
20622;BME280;10470;42.670;23.354;2023-07-02T12:06:45;94220.00;;;26.03;100.00
20622;BME280;10470;42.670;23.354;2023-07-02T12:09:14;94221.16;;;26.73;100.00
20622;BME280;10470;42.670;23.354;2023-07-02T12:11:42;94235.00;;;26.64;100.00
20622;BME280;10470;42.670;23.354;2023-07-02T12:14:14;94240.81;;;26.50;100.00
20622;BME280;10470;42.670;23.354;2023-07-02T12:16:42;94244.91;;;26.17;100.00
20622;BME280;10470;42.670;23.354;2023-07-02T12:19:11;94239.41;;;25.93;100.00
20622;BME280;10470;42.670;23.354;2023-07-02T12:21:40;94231.78;;;25.86;100.00
20622;BME280;10470;42.670;23.354;2023-07-02T12:24:08;94240.78;;;25.46;100.00
20622;BME280;10470;42.670;23.354;2023-07-02T12:26:37;94236.88;;;24.96;100.00
20622;BME280;10470;42.670;23.354;2023-07-02T12:29:05;94233.53;;;25.05;100.00
20622;BME280;10470;42.670;23.354;2023-07-02T12:31:33;94235.03;;;25.37;100.00
20622;BME280;10470;42.670;23.354;2023-07-02T12:34:02;94238.16;;;24.95;100.00
20622;BME280;10470;42.670;23.354;2023-07-02T12:36:30;94234.94;;;24.45;100.00
20622;BME280;10470;42.670;23.354;2023-07-02T12:38:59;94225.66;;;23.98;100.00
20622;BME280;10470;42.670;23.354;2023-07-02T12:41:27;94223.84;;;24.08;100.00
20622;BME280;10470;42.670;23.354;2023-07-02T12:43:58;94224.81;;;24.18;100.00
20622;BME280;10470;42.670;23.354;2023-07-02T12:46:27;94220.06;;;23.90;100.00
20622;BME280;10470;42.670;23.354;2023-07-02T12:48:55;94218.16;;;24.29;100.00
20622;BME280;10470;42.670;23.354;2023-07-02T12:51:24;94227.34;;;24.53;100.00
20622;BME280;10470;42.670;23.354;2023-07-02T12:53:53;94216.25;;;25.37;100.00